createdAt,value
2018-06-13T00:01:02.135Z,5.93
2018-06-13T00:03:31.078Z,5.87
2018-06-13T00:06:00.076Z,7.23
2018-06-13T00:08:29.173Z,8.23
2018-06-13T00:10:57.931Z,5.97
2018-06-13T00:13:26.746Z,9.47
2018-06-13T00:15:55.713Z,9.70
2018-06-13T00:18:24.623Z,7.67
2018-06-13T00:20:53.563Z,8.50
2018-06-13T00:23:22.534Z,5.43
2018-06-13T00:25:51.504Z,6.47
2018-06-13T00:28:20.416Z,8.30
2018-06-13T00:30:49.390Z,9.80
2018-06-13T00:33:18.373Z,6.67
2018-06-13T00:35:47.092Z,11.17
2018-06-13T00:38:15.907Z,10.80
2018-06-13T00:40:44.948Z,6.00
2018-06-13T00:43:13.987Z,7.30
2018-06-13T00:45:42.940Z,8.23
2018-06-13T00:48:11.929Z,17.23
2018-06-13T00:50:40.886Z,5.43
2018-06-13T00:53:09.819Z,13.13
2018-06-13T00:55:50.284Z,9.50
2018-06-13T00:58:19.237Z,7.83
2018-06-13T01:00:48.151Z,7.07
2018-06-13T01:03:17.124Z,12.80
2018-06-13T01:05:46.100Z,10.70
2018-06-13T01:08:15.094Z,9.63
2018-06-13T01:10:44.079Z,7.50
2018-06-13T01:13:13.021Z,15.27
2018-06-13T01:15:41.977Z,9.80
2018-06-13T01:18:10.876Z,7.80
2018-06-13T01:20:39.829Z,11.93
2018-06-13T01:23:08.775Z,10.67
2018-06-13T01:25:37.725Z,14.33
2018-06-13T01:28:06.674Z,7.20
2018-06-13T01:30:35.580Z,9.90
2018-06-13T01:33:04.842Z,8.93
2018-06-13T01:35:33.802Z,11.73
2018-06-13T01:38:02.748Z,11.63
2018-06-13T01:40:31.726Z,12.80
2018-06-13T01:43:00.696Z,9.80
2018-06-13T01:45:29.637Z,16.87
2018-06-13T01:47:58.587Z,12.47
2018-06-13T01:50:27.503Z,9.00
2018-06-13T01:52:56.457Z,13.53
2018-06-13T01:55:25.501Z,13.63
2018-06-13T01:57:54.437Z,6.67
2018-06-13T02:00:23.593Z,19.03
2018-06-13T02:02:52.509Z,12.17
2018-06-13T02:05:21.437Z,16.90
2018-06-13T02:07:50.389Z,10.57
2018-06-13T02:10:19.393Z,8.13
2018-06-13T02:12:48.288Z,13.57
2018-06-13T02:15:17.240Z,7.10
2018-06-13T02:17:46.204Z,12.03
2018-06-13T02:20:15.192Z,11.87
2018-06-13T02:22:44.153Z,12.70
2018-06-13T02:25:13.341Z,12.00
2018-06-13T02:27:42.021Z,11.70
2018-06-13T02:30:10.826Z,13.00
2018-06-13T02:32:41.426Z,12.93
2018-06-13T02:35:10.497Z,14.67
2018-06-13T02:37:39.471Z,8.00
2018-06-13T02:40:08.457Z,9.07
2018-06-13T02:42:37.381Z,13.03
2018-06-13T02:45:06.313Z,10.80
2018-06-13T02:47:35.269Z,10.73
2018-06-13T02:50:04.281Z,13.33
2018-06-13T02:52:33.259Z,13.60
2018-06-13T02:55:02.214Z,12.33
2018-06-13T02:57:31.246Z,11.80
2018-06-13T03:00:00.184Z,9.90
2018-06-13T03:02:29.396Z,17.83
2018-06-13T03:04:58.320Z,7.07
2018-06-13T03:07:27.274Z,9.53
2018-06-13T03:09:56.186Z,9.80
2018-06-13T03:12:25.163Z,15.17
2018-06-13T03:14:54.080Z,9.47
2018-06-13T03:17:23.047Z,8.03
2018-06-13T03:19:52.011Z,18.37
2018-06-13T03:22:20.930Z,9.33
2018-06-13T03:24:49.841Z,9.43
2018-06-13T03:27:18.572Z,11.83
2018-06-13T03:29:47.398Z,9.77
2018-06-13T03:32:16.361Z,11.67
2018-06-13T03:34:45.345Z,8.00
2018-06-13T03:37:14.388Z,11.60
2018-06-13T03:39:43.355Z,10.67
2018-06-13T03:42:12.308Z,12.70
2018-06-13T03:44:41.228Z,8.80
2018-06-13T03:47:10.160Z,11.87
2018-06-13T03:49:39.077Z,20.47
2018-06-13T03:52:08.017Z,14.90
2018-06-13T03:54:36.948Z,10.10
2018-06-13T03:57:06.115Z,23.57
2018-06-13T03:59:34.813Z,14.33
2018-06-13T04:02:03.420Z,12.97
2018-06-13T04:04:32.275Z,11.57
2018-06-13T04:07:01.225Z,10.13
2018-06-13T04:09:30.467Z,9.00
2018-06-13T04:11:59.396Z,13.43
2018-06-13T04:14:28.371Z,8.87
2018-06-13T04:16:57.309Z,11.10
2018-06-13T04:19:26.320Z,7.20
2018-06-13T04:21:55.246Z,10.90
2018-06-13T04:24:24.411Z,8.63
2018-06-13T04:26:53.113Z,13.97
2018-06-13T04:29:21.946Z,9.27
2018-06-13T04:31:50.933Z,10.87
2018-06-13T04:34:19.872Z,13.57
2018-06-13T04:36:48.801Z,10.07
2018-06-13T04:39:17.752Z,14.33
2018-06-13T04:41:46.840Z,11.57
2018-06-13T04:44:15.804Z,15.57
2018-06-13T04:46:44.732Z,6.13
2018-06-13T04:49:13.722Z,14.13
2018-06-13T04:51:42.677Z,13.53
2018-06-13T04:54:11.653Z,11.73
2018-06-13T04:56:40.595Z,13.67
2018-06-13T04:59:09.540Z,11.30
2018-06-13T05:01:38.472Z,11.63
2018-06-13T05:04:07.364Z,14.90
2018-06-13T05:06:36.280Z,13.77
2018-06-13T05:09:07.598Z,13.13
2018-06-13T05:11:36.563Z,14.20
2018-06-13T05:14:05.307Z,18.37
2018-06-13T05:16:34.193Z,10.60
2018-06-13T05:19:03.135Z,12.37
2018-06-13T05:21:32.100Z,15.60
2018-06-13T05:24:01.074Z,14.70
2018-06-13T05:26:30.032Z,19.83
2018-06-13T05:28:59.053Z,12.33
2018-06-13T05:31:28.094Z,17.97
2018-06-13T05:33:57.069Z,10.70
2018-06-13T05:36:26.022Z,10.07
2018-06-13T05:38:54.977Z,12.10
2018-06-13T05:41:23.917Z,12.07
2018-06-13T05:43:53.079Z,10.67
2018-06-13T05:46:21.955Z,9.47
2018-06-13T05:48:50.890Z,10.63
2018-06-13T05:51:19.830Z,8.20
2018-06-13T05:53:48.798Z,12.80
2018-06-13T05:56:17.736Z,7.53
2018-06-13T05:58:46.665Z,9.97
2018-06-13T06:01:15.627Z,11.53
2018-06-13T06:03:44.694Z,12.90
2018-06-13T06:06:13.701Z,10.90
2018-06-13T06:08:42.661Z,18.17
2018-06-13T06:11:11.624Z,13.73
2018-06-13T06:13:40.550Z,11.70
2018-06-13T06:16:09.497Z,4.97
2018-06-13T06:18:38.493Z,8.47
2018-06-13T06:21:07.465Z,10.70
2018-06-13T06:23:36.454Z,9.57
2018-06-13T06:26:05.408Z,7.00
2018-06-13T06:28:34.278Z,8.67
2018-06-13T06:31:03.227Z,16.63
2018-06-13T06:33:32.159Z,14.43
2018-06-13T06:36:01.113Z,10.20
2018-06-13T06:38:30.981Z,6.90
2018-06-13T06:40:59.967Z,6.40
2018-06-13T06:43:28.922Z,8.67
2018-06-13T06:45:57.866Z,7.80
2018-06-13T06:48:26.814Z,13.80
2018-06-13T06:50:55.740Z,6.53
2018-06-13T06:53:24.673Z,10.10
2018-06-13T06:55:53.628Z,7.30
2018-06-13T06:58:22.538Z,5.53
2018-06-13T07:00:51.515Z,7.07
2018-06-13T07:03:20.422Z,9.40
2018-06-13T07:05:49.446Z,10.37
2018-06-13T07:08:18.385Z,9.10
2018-06-13T07:10:47.350Z,6.87
2018-06-13T07:13:16.165Z,7.10
2018-06-13T07:15:44.944Z,5.13
2018-06-13T07:18:13.996Z,6.33
2018-06-13T07:20:43.200Z,7.17
2018-06-13T07:23:12.147Z,7.07
2018-06-13T07:25:41.102Z,8.73
2018-06-13T07:28:10.065Z,4.47
2018-06-13T07:30:39.082Z,11.20
2018-06-13T07:33:08.057Z,5.43
2018-06-13T07:35:36.998Z,7.67
2018-06-13T07:38:05.936Z,10.40
2018-06-13T07:40:34.645Z,10.03
2018-06-13T07:43:03.446Z,8.80
2018-06-13T07:45:32.375Z,9.60
2018-06-13T07:48:01.321Z,9.43
2018-06-13T07:50:30.340Z,12.37
2018-06-13T07:52:59.273Z,7.53
2018-06-13T07:55:27.986Z,7.77
2018-06-13T07:57:56.846Z,5.03
2018-06-13T08:00:25.809Z,5.50
2018-06-13T08:02:54.615Z,5.57
2018-06-13T08:05:23.458Z,10.60
2018-06-13T08:07:52.360Z,6.40
2018-06-13T08:10:21.342Z,9.30
2018-06-13T08:12:50.300Z,6.10
2018-06-13T08:15:19.237Z,8.80
2018-06-13T08:17:48.827Z,9.03
2018-06-13T08:20:17.811Z,6.23
2018-06-13T08:22:46.748Z,4.60
2018-06-13T08:25:16.113Z,6.60
2018-06-13T08:27:48.763Z,15.20
2018-06-13T08:30:17.700Z,13.00
2018-06-13T08:32:47.481Z,9.40
2018-06-13T08:35:16.410Z,4.63
2018-06-13T08:37:45.366Z,7.20
2018-06-13T08:40:14.289Z,6.43
2018-06-13T08:42:43.238Z,6.53
2018-06-13T08:45:12.167Z,6.30
2018-06-13T08:47:41.161Z,12.03
2018-06-13T08:50:10.116Z,8.90
2018-06-13T08:52:39.041Z,10.00
2018-06-13T08:55:07.986Z,7.97
2018-06-13T08:57:37.008Z,12.23
2018-06-13T09:00:06.155Z,6.77
2018-06-13T09:02:35.108Z,6.33
2018-06-13T09:05:03.889Z,11.53
2018-06-13T09:07:32.672Z,7.00
2018-06-13T09:10:01.708Z,10.97
2018-06-13T09:12:31.046Z,15.40
2018-06-13T09:15:00.495Z,6.23
2018-06-13T09:17:30.514Z,4.93
2018-06-13T09:20:00.591Z,9.93
2018-06-13T09:22:30.683Z,8.30
2018-06-13T09:25:00.045Z,16.80
2018-06-13T09:27:29.005Z,14.40
2018-06-13T09:29:58.009Z,11.13
2018-06-13T09:32:26.825Z,25.00
2018-06-13T09:34:55.926Z,9.60
2018-06-13T09:37:24.916Z,11.07
2018-06-13T09:39:54.031Z,7.40
2018-06-13T09:42:22.949Z,7.23
2018-06-13T09:44:51.886Z,10.53
2018-06-13T09:47:23.459Z,9.50
2018-06-13T09:49:49.898Z,8.03
2018-06-13T09:52:18.831Z,8.10
2018-06-13T09:54:47.828Z,7.03
2018-06-13T09:57:16.763Z,9.93
2018-06-13T09:59:51.483Z,10.50
2018-06-13T10:02:20.410Z,6.07
2018-06-13T10:04:49.389Z,9.10
2018-06-13T10:07:18.337Z,12.00
2018-06-13T10:09:47.264Z,10.20
2018-06-13T10:12:16.273Z,6.60
2018-06-13T10:14:45.241Z,7.00
2018-06-13T10:17:14.182Z,13.47
2018-06-13T10:19:42.892Z,7.73
2018-06-13T10:22:11.457Z,15.33
2018-06-13T10:24:40.297Z,6.03
2018-06-13T10:27:14.737Z,8.87
2018-06-13T10:29:43.869Z,14.90
2018-06-13T10:32:12.639Z,8.40
2018-06-13T10:34:41.467Z,5.30
2018-06-13T10:37:10.385Z,5.70
2018-06-13T10:39:39.349Z,5.27
2018-06-13T10:42:08.278Z,11.93
2018-06-13T10:44:37.222Z,5.60
2018-06-13T10:47:06.201Z,8.93
2018-06-13T10:49:35.489Z,8.27
2018-06-13T10:52:05.421Z,8.80
2018-06-13T10:54:34.398Z,10.23
2018-06-13T10:57:03.344Z,11.23
2018-06-13T10:59:32.277Z,9.80
2018-06-13T11:02:01.227Z,8.17
2018-06-13T11:04:30.173Z,6.80
2018-06-13T11:06:59.109Z,6.77
2018-06-13T11:09:28.096Z,7.00
2018-06-13T11:11:57.021Z,7.13
2018-06-13T11:14:25.989Z,9.40
2018-06-13T11:16:54.929Z,7.00
2018-06-13T11:19:23.865Z,10.37
2018-06-13T11:21:52.786Z,12.73
2018-06-13T11:24:21.753Z,6.07
2018-06-13T11:26:50.692Z,7.70
2018-06-13T11:29:19.614Z,9.90
2018-06-13T11:31:48.801Z,8.70
2018-06-13T11:34:17.771Z,7.47
2018-06-13T11:36:46.730Z,6.87
2018-06-13T11:39:15.681Z,7.53
2018-06-13T11:41:46.569Z,4.67
2018-06-13T11:44:16.038Z,5.30
2018-06-13T11:46:45.054Z,9.67
2018-06-13T11:49:14.003Z,7.03
2018-06-13T11:51:44.015Z,5.93
2018-06-13T11:54:12.982Z,7.40
2018-06-13T11:56:42.233Z,6.53
2018-06-13T11:59:11.197Z,20.30
2018-06-13T12:01:40.334Z,7.70
2018-06-13T12:04:09.304Z,7.23
2018-06-13T12:06:38.603Z,11.53
2018-06-13T12:09:08.434Z,5.20
2018-06-13T12:11:38.634Z,9.87
2018-06-13T12:14:07.634Z,4.53
2018-06-13T12:16:36.616Z,7.93
2018-06-13T12:19:05.559Z,8.87
2018-06-13T12:21:34.558Z,11.63
2018-06-13T12:24:03.537Z,8.70
2018-06-13T12:26:32.462Z,9.30
2018-06-13T12:29:01.385Z,7.13
2018-06-13T12:31:30.337Z,7.20
2018-06-13T12:33:59.165Z,9.30
2018-06-13T12:36:28.105Z,9.37
2018-06-13T12:38:57.051Z,9.10
2018-06-13T12:41:26.201Z,4.90
2018-06-13T12:43:55.036Z,13.27
2018-06-13T12:46:23.961Z,8.53
2018-06-13T12:48:53.366Z,5.50
2018-06-13T12:51:22.311Z,9.57
2018-06-13T12:53:52.084Z,11.73
2018-06-13T12:56:21.050Z,4.93
2018-06-13T12:58:49.982Z,6.93
2018-06-13T13:01:18.966Z,4.70
2018-06-13T13:03:48.138Z,4.97
2018-06-13T13:06:17.398Z,5.17
2018-06-13T13:08:46.340Z,9.47
2018-06-13T13:11:15.408Z,4.30
2018-06-13T13:13:44.258Z,11.60
2018-06-13T13:16:13.718Z,5.23
2018-06-13T13:18:42.690Z,5.13
2018-06-13T13:21:12.095Z,9.20
2018-06-13T13:23:41.134Z,7.53
2018-06-13T13:26:10.054Z,5.43
2018-06-13T13:28:39.013Z,8.67
2018-06-13T13:31:07.929Z,7.30
2018-06-13T13:33:36.841Z,6.40
2018-06-13T13:36:06.129Z,6.30
2018-06-13T13:38:35.037Z,6.77
2018-06-13T13:41:03.985Z,5.60
2018-06-13T13:43:32.914Z,5.27
2018-06-13T13:46:01.877Z,7.57
2018-06-13T13:48:30.720Z,11.13
2018-06-13T13:50:59.549Z,8.07
2018-06-13T13:53:28.854Z,9.33
2018-06-13T13:55:57.815Z,9.87
2018-06-13T13:58:26.750Z,8.13
2018-06-13T14:00:55.701Z,13.93
2018-06-13T14:03:24.419Z,7.23
2018-06-13T14:05:53.241Z,10.97
2018-06-13T14:08:22.245Z,15.30
2018-06-13T14:10:51.182Z,10.07
2018-06-13T14:13:20.156Z,15.73
2018-06-13T14:15:48.891Z,7.43
2018-06-13T14:18:17.703Z,5.90
2018-06-13T14:20:46.631Z,17.23
2018-06-13T14:23:15.974Z,5.90
2018-06-13T14:25:44.871Z,8.03
2018-06-13T14:28:13.915Z,7.33
2018-06-13T14:30:43.118Z,6.33
2018-06-13T14:33:12.053Z,4.83
2018-06-13T14:35:41.857Z,4.67
2018-06-13T14:38:11.190Z,7.77
2018-06-13T14:40:40.114Z,10.30
2018-06-13T14:43:09.053Z,4.80
2018-06-13T14:45:38.249Z,5.03
2018-06-13T14:48:07.175Z,6.70
2018-06-13T14:50:36.177Z,6.03
2018-06-13T14:53:05.078Z,12.00
2018-06-13T14:55:40.584Z,6.60
2018-06-13T14:58:09.844Z,11.37
2018-06-13T15:00:38.874Z,6.40
2018-06-13T15:03:07.541Z,8.83
2018-06-13T15:05:36.337Z,8.50
2018-06-13T15:08:05.499Z,7.70
2018-06-13T15:10:34.532Z,5.90
2018-06-13T15:13:03.552Z,12.50
2018-06-13T15:15:32.393Z,8.53
2018-06-13T15:18:01.318Z,9.70
2018-06-13T15:20:30.341Z,14.90
2018-06-13T15:22:59.378Z,3.50
2018-06-13T15:25:28.307Z,12.13
2018-06-13T15:27:57.506Z,5.83
2018-06-13T15:30:26.538Z,7.77
2018-06-13T15:32:55.492Z,7.57
2018-06-13T15:35:24.459Z,8.20
2018-06-13T15:37:53.209Z,7.13
2018-06-13T15:40:22.181Z,7.30
2018-06-13T15:42:51.134Z,5.80
2018-06-13T15:45:19.833Z,13.50
2018-06-13T15:47:48.417Z,9.00
2018-06-13T15:50:17.240Z,7.90
2018-06-13T15:52:46.202Z,7.57
2018-06-13T15:55:15.132Z,6.70
2018-06-13T15:57:44.122Z,5.83
2018-06-13T16:00:13.041Z,4.67
2018-06-13T16:02:41.962Z,4.43
2018-06-13T16:05:10.915Z,8.60
2018-06-13T16:07:39.842Z,8.50
2018-06-13T16:10:08.784Z,5.93
2018-06-13T16:12:38.219Z,11.90
2018-06-13T16:15:07.178Z,7.63
2018-06-13T16:17:36.125Z,5.47
2018-06-13T16:20:05.616Z,6.20
2018-06-13T16:22:34.618Z,8.30
2018-06-13T16:25:03.709Z,7.77
2018-06-13T16:27:32.784Z,4.50
2018-06-13T16:30:01.802Z,6.13
2018-06-13T16:32:30.926Z,4.40
2018-06-13T16:34:59.846Z,8.07
2018-06-13T16:37:28.569Z,6.50
2018-06-13T16:39:57.350Z,5.77
2018-06-13T16:42:26.291Z,5.30
2018-06-13T16:44:55.224Z,8.57
2018-06-13T16:47:24.149Z,3.43
2018-06-13T16:49:53.070Z,4.43
2018-06-13T16:52:33.564Z,4.77
2018-06-13T16:55:24.176Z,4.90
2018-06-13T16:57:53.271Z,6.50
2018-06-13T17:00:22.760Z,4.60
2018-06-13T17:02:52.148Z,4.57
2018-06-13T17:05:21.100Z,5.97
2018-06-13T17:07:50.098Z,10.20
2018-06-13T17:10:19.026Z,11.30
2018-06-13T17:12:48.037Z,4.90
2018-06-13T17:15:16.965Z,8.00
2018-06-13T17:17:45.679Z,5.23
2018-06-13T17:20:14.518Z,4.90
2018-06-13T17:22:43.526Z,3.83
2018-06-13T17:25:12.520Z,6.37
2018-06-13T17:27:41.484Z,4.50
2018-06-13T17:30:10.734Z,4.57
2018-06-13T17:32:40.230Z,10.07
2018-06-13T17:35:09.379Z,4.80
2018-06-13T17:37:38.544Z,8.17
2018-06-13T17:40:07.463Z,5.03
2018-06-13T17:42:36.543Z,8.10
2018-06-13T17:45:05.948Z,7.23
2018-06-13T17:47:34.694Z,6.30
2018-06-13T17:50:03.320Z,5.07
2018-06-13T17:52:32.158Z,4.73
2018-06-13T17:55:01.083Z,7.10
2018-06-13T17:57:30.043Z,7.77
2018-06-13T17:59:59.892Z,4.93
2018-06-13T18:02:29.249Z,8.43
2018-06-13T18:04:58.182Z,6.10
2018-06-13T18:07:27.176Z,3.30
2018-06-13T18:09:56.094Z,6.90
2018-06-13T18:12:25.052Z,4.60
2018-06-13T18:14:54.315Z,6.67
2018-06-13T18:17:23.029Z,5.50
2018-06-13T18:19:51.819Z,7.93
2018-06-13T18:22:20.762Z,9.23
2018-06-13T18:24:49.715Z,8.53
2018-06-13T18:27:18.822Z,5.37
2018-06-13T18:29:47.727Z,5.87
2018-06-13T18:32:16.503Z,5.87
2018-06-13T18:34:45.315Z,7.00
2018-06-13T18:37:15.253Z,5.87
2018-06-13T18:39:44.210Z,9.33
2018-06-13T18:42:13.148Z,7.90
2018-06-13T18:44:42.166Z,8.73
2018-06-13T18:47:11.122Z,9.50
2018-06-13T18:49:40.090Z,5.03
2018-06-13T18:52:09.037Z,8.37
2018-06-13T18:54:37.982Z,7.77
2018-06-13T18:57:06.917Z,15.20
2018-06-13T18:59:35.869Z,14.60
2018-06-13T19:02:04.815Z,31.77
2018-06-13T19:04:33.759Z,7.87
2018-06-13T19:07:02.705Z,4.53
2018-06-13T19:09:31.639Z,4.10
2018-06-13T19:12:00.606Z,8.63
2018-06-13T19:14:29.527Z,5.67
2018-06-13T19:16:58.472Z,32.40
2018-06-13T19:19:27.199Z,21.27
2018-06-13T19:21:56.309Z,11.00
2018-06-13T19:24:25.291Z,5.50
2018-06-13T19:26:54.168Z,8.77
2018-06-13T19:29:23.156Z,9.90
2018-06-13T19:31:52.089Z,12.50
2018-06-13T19:34:21.027Z,9.93
2018-06-13T19:36:50.008Z,5.70
2018-06-13T19:39:19.010Z,8.40
2018-06-13T19:41:48.099Z,4.63
2018-06-13T19:44:17.049Z,16.43
2018-06-13T19:46:46.286Z,9.10
2018-06-13T19:49:15.193Z,7.07
2018-06-13T19:51:44.172Z,13.37
2018-06-13T19:54:18.562Z,10.00
2018-06-13T19:56:47.513Z,10.23
2018-06-13T19:59:16.462Z,13.13
2018-06-13T20:01:45.386Z,6.33
2018-06-13T20:04:19.813Z,7.83
2018-06-13T20:06:48.747Z,9.97
2018-06-13T20:09:17.737Z,7.73
2018-06-13T20:11:46.668Z,14.70
2018-06-13T20:14:21.170Z,7.30
2018-06-13T20:16:55.477Z,6.30
2018-06-13T20:19:29.814Z,13.03
2018-06-13T20:21:59.658Z,7.20
2018-06-13T20:24:28.591Z,6.73
2018-06-13T20:27:03.036Z,8.43
2018-06-13T20:30:40.268Z,8.47
2018-06-13T20:33:09.280Z,9.40
2018-06-13T20:35:38.275Z,10.20
2018-06-13T20:38:07.209Z,12.50
2018-06-13T20:40:36.145Z,9.40
2018-06-13T20:43:05.086Z,10.73
2018-06-13T20:45:34.026Z,13.67
2018-06-13T20:48:02.952Z,12.97
2018-06-13T20:50:31.915Z,8.47
2018-06-13T20:53:01.082Z,13.93
2018-06-13T20:55:30.050Z,11.20
2018-06-13T20:57:59.022Z,8.63
2018-06-13T21:00:28.289Z,8.50
2018-06-13T21:02:57.149Z,7.47
2018-06-13T21:05:26.122Z,11.63
2018-06-13T21:07:55.154Z,13.57
2018-06-13T21:10:24.148Z,8.00
2018-06-13T21:12:53.286Z,10.87
2018-06-13T21:15:22.238Z,9.77
2018-06-13T21:17:51.203Z,20.63
2018-06-13T21:20:20.475Z,11.77
2018-06-13T21:22:49.438Z,11.20
2018-06-13T21:25:18.381Z,11.53
2018-06-13T21:27:47.345Z,10.37
2018-06-13T21:30:16.314Z,16.87
2018-06-13T21:32:45.395Z,8.57
2018-06-13T21:35:14.339Z,15.80
2018-06-13T21:37:43.351Z,14.27
2018-06-13T21:40:12.311Z,10.27
2018-06-13T21:42:41.329Z,12.47
2018-06-13T21:45:10.286Z,12.33
2018-06-13T21:47:39.459Z,13.73
2018-06-13T21:50:08.462Z,12.17
2018-06-13T21:52:37.407Z,9.93
2018-06-13T21:55:06.390Z,10.53
2018-06-13T21:57:35.285Z,9.80
2018-06-13T22:00:06.893Z,16.50
2018-06-13T22:02:35.593Z,16.60
2018-06-13T22:05:04.434Z,10.57
2018-06-13T22:07:33.390Z,16.60
2018-06-13T22:10:02.634Z,15.80
2018-06-13T22:12:31.578Z,18.17
2018-06-13T22:15:00.514Z,14.03
2018-06-13T22:17:30.462Z,12.23
2018-06-13T22:19:59.401Z,12.27
2018-06-13T22:22:28.404Z,8.70
2018-06-13T22:24:57.301Z,16.20
2018-06-13T22:27:26.233Z,14.20
2018-06-13T22:29:55.309Z,14.40
2018-06-13T22:32:24.292Z,11.47
2018-06-13T22:34:54.069Z,14.70
2018-06-13T22:43:17.957Z,11.47
2018-06-13T22:45:47.487Z,13.90
2018-06-13T22:48:16.642Z,19.13
2018-06-13T22:50:45.512Z,25.47
2018-06-13T22:53:14.522Z,24.07
2018-06-13T22:55:43.512Z,22.40
2018-06-13T22:58:12.490Z,52.20
2018-06-13T23:01:04.711Z,25.43
2018-06-13T23:03:33.789Z,38.60
2018-06-13T23:06:04.507Z,27.93
2018-06-13T23:08:33.989Z,27.60
2018-06-13T23:11:02.871Z,27.23
2018-06-13T23:13:31.787Z,32.27
2018-06-13T23:16:00.709Z,17.73
2018-06-13T23:18:30.088Z,22.03
2018-06-13T23:20:59.014Z,29.33
2018-06-13T23:23:28.000Z,22.43
2018-06-13T23:25:57.416Z,33.03
2018-06-13T23:28:26.396Z,54.93
2018-06-13T23:30:55.344Z,27.57
2018-06-13T23:33:24.312Z,35.67
2018-06-13T23:35:53.805Z,24.70
2018-06-13T23:38:22.757Z,22.07
2018-06-13T23:40:51.721Z,22.83
2018-06-13T23:43:20.643Z,36.77
2018-06-13T23:45:49.579Z,38.47
2018-06-13T23:48:18.472Z,43.90
2018-06-13T23:50:47.464Z,41.67
2018-06-13T23:53:16.426Z,34.57
2018-06-13T23:55:45.373Z,46.50
2018-06-13T23:58:14.352Z,39.57
